createdAt,value
2018-10-05T00:01:14.634Z,10.10
2018-10-05T00:03:43.113Z,10.33
2018-10-05T00:06:11.630Z,11.40
2018-10-05T00:08:40.089Z,25.23
2018-10-05T00:11:08.575Z,12.30
2018-10-05T00:13:37.293Z,12.73
2018-10-05T00:16:05.833Z,11.43
2018-10-05T00:18:34.313Z,13.27
2018-10-05T00:21:02.791Z,12.37
2018-10-05T00:23:31.254Z,10.27
2018-10-05T00:25:59.819Z,14.23
2018-10-05T00:28:28.319Z,12.70
2018-10-05T00:30:56.825Z,12.63
2018-10-05T00:33:25.347Z,11.50
2018-10-05T00:35:53.784Z,13.20
2018-10-05T00:38:22.328Z,11.70
2018-10-05T00:40:57.314Z,13.63
2018-10-05T00:43:25.924Z,14.07
2018-10-05T00:45:54.422Z,14.73
2018-10-05T00:48:22.973Z,11.03
2018-10-05T00:50:51.438Z,12.83
2018-10-05T00:53:19.986Z,12.07
2018-10-05T00:55:48.499Z,11.73
2018-10-05T00:58:16.930Z,13.10
2018-10-05T01:00:45.428Z,9.83
2018-10-05T01:03:13.965Z,11.07
2018-10-05T01:05:42.501Z,10.27
2018-10-05T01:08:11.077Z,12.43
2018-10-05T01:10:39.555Z,12.50
2018-10-05T01:13:08.247Z,14.40
2018-10-05T01:15:36.705Z,10.77
2018-10-05T01:18:05.367Z,13.57
2018-10-05T01:20:33.849Z,11.37
2018-10-05T01:23:02.361Z,11.10
2018-10-05T01:25:30.888Z,12.00
2018-10-05T01:27:59.356Z,11.77
2018-10-05T01:30:27.841Z,11.47
2018-10-05T01:32:56.340Z,11.73
2018-10-05T01:35:24.869Z,14.33
2018-10-05T01:37:53.371Z,8.87
2018-10-05T01:40:21.846Z,14.70
2018-10-05T01:42:50.481Z,8.80
2018-10-05T01:45:18.957Z,10.37
2018-10-05T01:47:47.430Z,8.93
2018-10-05T01:50:15.880Z,13.80
2018-10-05T01:52:44.352Z,9.97
2018-10-05T01:55:12.839Z,11.80
2018-10-05T01:57:41.334Z,11.13
2018-10-05T02:00:10.080Z,9.50
2018-10-05T02:02:39.037Z,10.87
2018-10-05T02:05:07.753Z,10.77
2018-10-05T02:07:36.267Z,10.47
2018-10-05T02:10:04.810Z,11.40
2018-10-05T02:12:33.310Z,10.17
2018-10-05T02:15:01.829Z,12.30
2018-10-05T02:17:30.293Z,10.13
2018-10-05T02:19:58.785Z,9.53
2018-10-05T02:22:27.255Z,10.40
2018-10-05T02:24:55.728Z,11.53
2018-10-05T02:27:24.261Z,10.57
2018-10-05T02:29:52.719Z,10.43
2018-10-05T02:32:21.291Z,10.80
2018-10-05T02:34:49.822Z,10.27
2018-10-05T02:37:18.260Z,8.47
2018-10-05T02:39:46.694Z,8.67
2018-10-05T02:42:15.181Z,10.70
2018-10-05T02:44:43.726Z,8.53
2018-10-05T02:47:12.190Z,10.27
2018-10-05T02:49:40.679Z,11.83
2018-10-05T02:52:09.280Z,8.80
2018-10-05T02:54:37.765Z,10.27
2018-10-05T02:57:06.280Z,10.80
2018-10-05T02:59:34.728Z,11.47
2018-10-05T03:02:14.483Z,11.90
2018-10-05T03:04:42.953Z,9.87
2018-10-05T03:07:11.478Z,11.27
2018-10-05T03:09:39.944Z,13.80
2018-10-05T03:12:08.402Z,12.13
2018-10-05T03:14:36.871Z,9.90
2018-10-05T03:17:05.377Z,11.77
2018-10-05T03:19:34.513Z,8.47
2018-10-05T03:22:03.038Z,12.80
2018-10-05T03:24:31.543Z,10.10
2018-10-05T03:27:00.728Z,8.87
2018-10-05T03:29:29.326Z,9.60
2018-10-05T03:31:57.846Z,8.67
2018-10-05T03:34:26.378Z,8.27
2018-10-05T03:36:54.864Z,11.23
2018-10-05T03:39:23.309Z,10.93
2018-10-05T03:41:51.753Z,11.97
2018-10-05T03:44:20.255Z,8.80
2018-10-05T03:46:48.718Z,6.60
2018-10-05T03:49:17.244Z,11.20
2018-10-05T03:51:45.745Z,10.53
2018-10-05T03:54:18.325Z,9.20
2018-10-05T03:56:46.785Z,11.27
2018-10-05T03:59:15.265Z,10.63
2018-10-05T04:01:43.736Z,8.77
2018-10-05T04:04:12.247Z,9.93
2018-10-05T04:06:40.743Z,10.57
2018-10-05T04:09:10.289Z,9.90
2018-10-05T04:11:38.746Z,10.87
2018-10-05T04:14:07.214Z,8.53
2018-10-05T04:16:35.780Z,11.90
2018-10-05T04:19:04.318Z,15.43
2018-10-05T04:21:32.850Z,8.50
2018-10-05T04:24:01.326Z,8.03
2018-10-05T04:26:29.852Z,7.83
2018-10-05T04:28:58.359Z,19.53
2018-10-05T04:31:26.873Z,8.80
2018-10-05T04:33:55.390Z,10.20
2018-10-05T04:36:23.911Z,15.70
2018-10-05T04:38:53.443Z,8.73
2018-10-05T04:41:21.832Z,7.70
2018-10-05T04:43:50.320Z,12.30
2018-10-05T04:46:18.754Z,14.07
2018-10-05T04:48:47.379Z,7.30
2018-10-05T04:51:15.873Z,10.37
2018-10-05T04:53:44.348Z,10.23
2018-10-05T04:56:12.925Z,10.47
2018-10-05T04:58:51.134Z,13.50
2018-10-05T05:01:31.233Z,9.40
2018-10-05T05:04:02.963Z,8.27
2018-10-05T05:06:31.499Z,9.97
2018-10-05T05:09:00.024Z,9.47
2018-10-05T05:11:28.521Z,13.30
2018-10-05T05:13:56.978Z,8.30
2018-10-05T05:16:26.309Z,7.20
2018-10-05T05:18:54.758Z,12.23
2018-10-05T05:21:23.226Z,10.83
2018-10-05T05:23:51.686Z,11.63
2018-10-05T05:26:20.192Z,9.00
2018-10-05T05:28:48.660Z,9.87
2018-10-05T05:31:17.149Z,6.77
2018-10-05T05:33:45.613Z,8.67
2018-10-05T05:36:14.436Z,12.90
2018-10-05T05:38:43.005Z,8.20
2018-10-05T05:41:11.467Z,12.30
2018-10-05T05:43:40.049Z,7.83
2018-10-05T05:46:08.591Z,6.93
2018-10-05T05:48:37.038Z,10.07
2018-10-05T05:51:05.531Z,10.33
2018-10-05T05:53:34.145Z,6.83
2018-10-05T05:56:02.623Z,12.03
2018-10-05T05:58:31.082Z,9.07
2018-10-05T06:01:03.791Z,9.90
2018-10-05T06:03:33.058Z,16.30
2018-10-05T06:06:01.588Z,17.87
2018-10-05T06:08:30.077Z,9.90
2018-10-05T06:10:58.668Z,8.87
2018-10-05T06:13:27.742Z,10.93
2018-10-05T06:15:57.214Z,7.50
2018-10-05T06:18:25.770Z,16.60
2018-10-05T06:20:54.295Z,8.50
2018-10-05T06:23:23.697Z,12.67
2018-10-05T06:25:52.200Z,9.00
2018-10-05T06:28:20.628Z,11.57
2018-10-05T06:30:49.193Z,12.47
2018-10-05T06:33:17.655Z,12.70
2018-10-05T06:35:46.057Z,13.33
2018-10-05T06:38:14.595Z,11.13
2018-10-05T06:40:42.988Z,10.73
2018-10-05T06:43:11.442Z,10.50
2018-10-05T06:45:39.947Z,13.60
2018-10-05T06:48:08.417Z,18.73
2018-10-05T06:50:36.905Z,12.53
2018-10-05T06:53:05.396Z,17.70
2018-10-05T06:55:33.798Z,14.23
2018-10-05T06:58:02.221Z,13.00
2018-10-05T07:00:30.645Z,12.00
2018-10-05T07:03:00.098Z,16.33
2018-10-05T07:05:28.519Z,12.43
2018-10-05T07:07:57.086Z,17.93
2018-10-05T07:10:25.513Z,16.90
2018-10-05T07:12:53.965Z,16.77
2018-10-05T07:15:22.429Z,25.63
2018-10-05T07:17:50.949Z,14.97
2018-10-05T07:20:19.409Z,16.60
2018-10-05T07:22:47.909Z,15.50
2018-10-05T07:25:16.344Z,17.43
2018-10-05T07:27:44.799Z,20.97
2018-10-05T07:30:13.266Z,18.10
2018-10-05T07:32:41.718Z,18.53
2018-10-05T07:35:10.189Z,16.37
2018-10-05T07:37:38.699Z,23.23
2018-10-05T07:40:07.160Z,23.80
2018-10-05T07:42:35.597Z,19.30
2018-10-05T07:45:04.111Z,25.10
2018-10-05T07:47:32.573Z,17.67
2018-10-05T07:50:01.032Z,22.83
2018-10-05T07:52:29.507Z,24.53
2018-10-05T07:54:57.987Z,23.33
2018-10-05T07:57:26.480Z,18.23
2018-10-05T07:59:54.914Z,23.43
2018-10-05T08:02:23.375Z,21.57
2018-10-05T08:04:51.844Z,23.20
2018-10-05T08:07:20.292Z,23.40
2018-10-05T08:09:48.744Z,23.87
2018-10-05T08:12:17.183Z,27.37
2018-10-05T08:14:52.348Z,26.40
2018-10-05T08:17:20.824Z,21.33
2018-10-05T08:19:49.330Z,22.73
2018-10-05T08:22:17.825Z,22.27
2018-10-05T08:24:46.258Z,19.40
2018-10-05T08:27:14.838Z,17.90
2018-10-05T08:29:43.222Z,21.53
2018-10-05T08:32:11.721Z,14.93
2018-10-05T08:34:40.224Z,26.00
2018-10-05T08:37:08.607Z,16.93
2018-10-05T08:39:37.890Z,16.40
2018-10-05T08:42:06.381Z,19.43
2018-10-05T08:44:34.837Z,15.13
2018-10-05T08:47:03.343Z,14.50
2018-10-05T08:49:31.769Z,15.63
2018-10-05T08:52:00.229Z,15.23
2018-10-05T08:54:28.698Z,11.90
2018-10-05T08:56:57.158Z,11.17
2018-10-05T08:59:25.609Z,14.20
2018-10-05T09:01:54.036Z,16.13
2018-10-05T09:04:22.499Z,9.73
2018-10-05T09:06:50.996Z,9.27
2018-10-05T09:09:19.447Z,8.23
2018-10-05T09:11:47.906Z,7.47
2018-10-05T09:14:16.362Z,8.30
2018-10-05T09:16:44.822Z,6.90
2018-10-05T09:19:13.292Z,13.80
2018-10-05T09:21:41.727Z,8.00
2018-10-05T09:24:10.775Z,9.77
2018-10-05T09:26:39.202Z,10.93
2018-10-05T09:29:07.675Z,10.30
2018-10-05T09:31:36.127Z,11.10
2018-10-05T09:34:04.591Z,10.63
2018-10-05T09:36:33.040Z,8.27
2018-10-05T09:39:01.522Z,12.97
2018-10-05T09:41:30.011Z,7.90
2018-10-05T09:43:58.454Z,9.83
2018-10-05T09:46:26.938Z,10.40
2018-10-05T09:48:55.391Z,6.93
2018-10-05T09:51:23.827Z,6.53
2018-10-05T09:53:52.294Z,6.17
2018-10-05T09:56:20.742Z,6.47
2018-10-05T09:58:49.458Z,9.30
2018-10-05T10:01:23.384Z,5.40
2018-10-05T10:03:51.869Z,8.57
2018-10-05T10:06:20.412Z,7.97
2018-10-05T10:08:48.895Z,5.20
2018-10-05T10:11:17.409Z,10.43
2018-10-05T10:13:45.939Z,8.87
2018-10-05T10:16:14.385Z,11.50
2018-10-05T10:18:42.853Z,6.97
2018-10-05T10:21:11.335Z,4.70
2018-10-05T10:23:40.567Z,10.33
2018-10-05T10:26:09.042Z,12.30
2018-10-05T10:28:37.585Z,8.90
2018-10-05T10:31:06.343Z,6.67
2018-10-05T10:33:34.786Z,8.27
2018-10-05T10:36:03.241Z,5.97
2018-10-05T10:38:31.679Z,9.90
2018-10-05T10:41:00.175Z,10.40
2018-10-05T10:43:28.612Z,12.73
2018-10-05T10:45:57.037Z,8.93
2018-10-05T10:48:25.483Z,5.60
2018-10-05T10:50:53.979Z,5.77
2018-10-05T10:53:22.413Z,5.43
2018-10-05T10:55:50.853Z,5.40
2018-10-05T10:58:19.303Z,6.70
2018-10-05T11:00:47.912Z,5.37
2018-10-05T11:03:16.314Z,6.60
2018-10-05T11:05:44.763Z,11.87
2018-10-05T11:08:13.248Z,6.70
2018-10-05T11:10:41.703Z,7.33
2018-10-05T11:13:10.440Z,11.03
2018-10-05T11:15:38.888Z,6.20
2018-10-05T11:18:07.320Z,10.50
2018-10-05T11:20:35.785Z,8.20
2018-10-05T11:23:04.236Z,6.20
2018-10-05T11:25:32.716Z,7.60
2018-10-05T11:28:01.167Z,11.63
2018-10-05T11:30:30.510Z,11.33
2018-10-05T11:32:58.964Z,9.80
2018-10-05T11:35:27.429Z,6.77
2018-10-05T11:37:55.872Z,7.90
2018-10-05T11:40:24.334Z,11.77
2018-10-05T11:42:52.783Z,8.13
2018-10-05T11:45:21.303Z,7.93
2018-10-05T11:47:49.748Z,4.60
2018-10-05T11:53:08.691Z,5.17
2018-10-05T11:55:37.234Z,5.67
2018-10-05T11:58:05.783Z,11.17
2018-10-05T12:00:36.509Z,6.83
2018-10-05T12:03:05.115Z,4.63
2018-10-05T12:05:33.840Z,6.60
2018-10-05T12:08:02.306Z,5.50
2018-10-05T12:10:30.774Z,5.17
2018-10-05T12:12:59.240Z,4.93
2018-10-05T12:15:27.783Z,9.70
2018-10-05T12:17:56.309Z,9.80
2018-10-05T12:20:24.856Z,7.93
2018-10-05T12:22:53.312Z,7.93
2018-10-05T12:25:22.766Z,7.07
2018-10-05T12:27:51.213Z,5.93
2018-10-05T12:30:19.782Z,7.20
2018-10-05T12:32:48.334Z,6.67
2018-10-05T12:35:16.841Z,8.67
2018-10-05T12:37:45.301Z,12.60
2018-10-05T12:40:13.752Z,11.77
2018-10-05T12:42:43.118Z,7.30
2018-10-05T12:45:11.560Z,12.97
2018-10-05T12:47:40.057Z,5.63
2018-10-05T12:50:08.868Z,6.20
2018-10-05T12:52:37.326Z,7.50
2018-10-05T12:55:05.871Z,7.90
2018-10-05T12:57:34.344Z,6.30
2018-10-05T13:00:02.798Z,9.93
2018-10-05T13:02:31.224Z,8.13
2018-10-05T13:04:59.758Z,6.83
2018-10-05T13:07:28.503Z,10.17
2018-10-05T13:09:57.045Z,8.20
2018-10-05T13:12:25.546Z,6.57
2018-10-05T13:14:54.079Z,10.07
2018-10-05T13:17:22.828Z,10.63
2018-10-05T13:19:51.332Z,10.30
2018-10-05T13:22:19.863Z,6.03
2018-10-05T13:24:48.381Z,5.83
2018-10-05T13:27:16.914Z,8.37
2018-10-05T13:29:45.359Z,9.57
2018-10-05T13:32:13.931Z,8.77
2018-10-05T13:34:42.379Z,6.73
2018-10-05T13:37:10.901Z,6.80
2018-10-05T13:39:39.340Z,4.30
2018-10-05T13:42:07.885Z,6.90
2018-10-05T13:44:37.321Z,9.53
2018-10-05T13:47:06.846Z,10.37
2018-10-05T13:49:35.261Z,7.77
2018-10-05T13:52:04.484Z,12.10
2018-10-05T13:54:32.973Z,7.80
2018-10-05T13:57:01.499Z,5.90
2018-10-05T13:59:30.373Z,6.77
2018-10-05T14:01:58.843Z,5.50
2018-10-05T14:04:27.508Z,11.33
2018-10-05T14:06:55.990Z,8.73
2018-10-05T14:09:25.078Z,6.63
2018-10-05T14:11:53.526Z,6.47
2018-10-05T14:14:22.006Z,5.97
2018-10-05T14:16:50.470Z,17.20
2018-10-05T14:19:18.976Z,6.93
2018-10-05T14:21:47.484Z,8.13
2018-10-05T14:24:15.894Z,8.83
2018-10-05T14:26:45.105Z,11.27
2018-10-05T14:29:13.579Z,11.77
2018-10-05T14:31:42.020Z,3.57
2018-10-05T14:34:10.527Z,15.63
2018-10-05T14:36:40.175Z,12.77
2018-10-05T14:39:09.277Z,5.00
2018-10-05T14:41:37.946Z,7.87
2018-10-05T14:44:06.374Z,8.63
2018-10-05T14:46:34.837Z,17.20
2018-10-05T14:49:03.277Z,6.10
2018-10-05T14:51:31.745Z,8.50
2018-10-05T14:54:00.211Z,5.60
2018-10-05T14:56:28.710Z,14.30
2018-10-05T14:58:57.212Z,10.50
2018-10-05T15:01:25.778Z,14.40
2018-10-05T15:03:54.258Z,6.33
2018-10-05T15:06:22.718Z,14.43
2018-10-05T15:08:51.159Z,7.70
2018-10-05T15:11:19.614Z,10.37
2018-10-05T15:13:48.054Z,6.47
2018-10-05T15:16:16.603Z,10.33
2018-10-05T15:18:45.055Z,10.77
2018-10-05T15:21:13.535Z,6.53
2018-10-05T15:23:42.013Z,9.17
2018-10-05T15:26:10.461Z,8.00
2018-10-05T15:28:38.960Z,11.90
2018-10-05T15:31:07.424Z,7.00
2018-10-05T15:33:36.491Z,7.10
2018-10-05T15:36:04.963Z,10.47
2018-10-05T15:38:33.404Z,7.93
2018-10-05T15:41:01.886Z,10.17
2018-10-05T15:43:30.500Z,9.17
2018-10-05T15:46:06.767Z,11.30
2018-10-05T15:48:35.575Z,8.53
2018-10-05T15:51:04.778Z,12.33
2018-10-05T15:53:33.900Z,4.83
2018-10-05T15:56:02.657Z,8.13
2018-10-05T15:58:31.186Z,6.83
2018-10-05T16:00:59.647Z,3.50
2018-10-05T16:03:28.093Z,4.57
2018-10-05T16:05:56.607Z,5.50
2018-10-05T16:08:25.028Z,7.47
2018-10-05T16:10:53.529Z,5.20
2018-10-05T16:13:21.943Z,6.13
2018-10-05T16:15:50.415Z,4.30
2018-10-05T16:18:18.936Z,5.17
2018-10-05T16:20:47.410Z,5.13
2018-10-05T16:23:15.923Z,3.97
2018-10-05T16:25:45.346Z,4.67
2018-10-05T16:28:13.827Z,6.73
2018-10-05T16:30:42.269Z,4.93
2018-10-05T16:33:10.802Z,4.60
2018-10-05T16:35:39.273Z,3.50
2018-10-05T16:38:07.740Z,4.20
2018-10-05T16:40:36.185Z,3.57
2018-10-05T16:43:04.667Z,4.73
2018-10-05T16:45:33.114Z,8.60
2018-10-05T16:48:01.583Z,6.20
2018-10-05T16:50:30.037Z,3.77
2018-10-05T16:52:58.482Z,9.07
2018-10-05T16:55:26.897Z,4.03
2018-10-05T16:57:55.339Z,5.73
2018-10-05T17:00:23.766Z,5.47
2018-10-05T17:02:52.217Z,9.50
2018-10-05T17:05:20.796Z,7.17
2018-10-05T17:07:49.260Z,5.30
2018-10-05T17:10:17.788Z,7.30
2018-10-05T17:12:46.169Z,5.60
2018-10-05T17:15:15.659Z,7.10
2018-10-05T17:17:44.106Z,7.73
